Time;durP1;ratioP1;P1;durP2;ratioP2;P2;SDS_P1;SDS_P2;PMS_P1;PMS_P2;Temp;Humidity;BMP_temperature;BMP_pressure;BME280_temperature;BME280_humidity;BME280_pressure;Samples;Min_cycle;Max_cycle;Signal;HPM_P1;HPM_P2
2023/03/21 00:00:46;;;;;;;7.18;4.95;;;;;;;;;;5094633;28;20066;-63
2023/03/21 00:03:13;;;;;;;6.82;5.13;;;17.50;91.20;;;;;;5093131;28;20051;-63
2023/03/21 00:05:41;;;;;;;6.90;5.13;;;17.50;91.20;;;;;;5094305;28;20074;-63
2023/03/21 00:08:07;;;;;;;6.68;4.68;;;17.50;91.20;;;;;;5091839;28;20044;-63
2023/03/21 00:10:33;;;;;;;7.88;5.60;;;17.40;91.10;;;;;;5081224;28;20524;-63
2023/03/21 00:12:59;;;;;;;7.28;4.90;;;17.10;91.10;;;;;;5102180;28;20036;-67
2023/03/21 00:15:26;;;;;;;7.30;5.40;;;;;;;;;;5072967;28;20510;-64
2023/03/21 00:18:02;;;;;;;7.28;4.70;;;17.70;91.20;;;;;;5094100;28;20044;-62
2023/03/21 00:20:33;;;;;;;7.65;5.00;;;17.50;91.20;;;;;;5091398;28;20114;-62
2023/03/21 00:23:02;;;;;;;6.70;4.72;;;17.40;91.20;;;;;;5092959;28;20138;-65
2023/03/21 00:25:28;;;;;;;7.85;5.63;;;17.30;91.10;;;;;;5074199;28;20039;-62
2023/03/21 00:27:54;;;;;;;6.90;4.97;;;17.40;88.80;;;;;;5091332;28;20382;-65
2023/03/21 00:30:20;;;;;;;8.75;4.97;;;17.50;91.10;;;;;;5088534;28;20047;-64
2023/03/21 00:32:46;;;;;;;8.05;5.32;;;17.40;90.90;;;;;;5074641;28;20048;-65
2023/03/21 00:35:12;;;;;;;7.03;5.28;;;17.50;91.20;;;;;;5092442;28;20397;-62
2023/03/21 00:37:37;;;;;;;6.63;4.70;;;17.50;91.20;;;;;;5094018;28;20036;-63
2023/03/21 00:40:10;;;;;;;7.45;5.20;;;17.40;91.20;;;;;;5092501;28;20490;-62
2023/03/21 00:42:35;;;;;;;6.95;4.72;;;17.50;90.30;;;;;;5056839;28;20052;-64
2023/03/21 00:45:03;;;;;;;6.40;4.57;;;17.50;91.20;;;;;;5074909;28;20089;-65
2023/03/21 00:47:28;;;;;;;6.20;4.40;;;17.70;91.20;;;;;;5069947;28;20393;-62
2023/03/21 00:49:54;;;;;;;7.07;5.30;;;17.20;91.10;;;;;;5113283;28;20044;-63
2023/03/21 00:52:21;;;;;;;6.50;4.53;;;;;;;;;;5113021;28;20094;-64
2023/03/21 00:54:47;;;;;;;6.55;4.78;;;17.60;91.20;;;;;;5110404;28;20075;-62
2023/03/21 00:57:12;;;;;;;6.35;4.72;;;17.50;91.20;;;;;;5109918;28;20127;-61
2023/03/21 00:59:38;;;;;;;5.90;4.20;;;17.60;91.20;;;;;;5113720;28;20119;-62
2023/03/21 01:02:06;;;;;;;6.82;4.80;;;17.10;91.10;;;;;;5074752;28;20048;-65
2023/03/21 01:04:33;;;;;;;7.10;4.70;;;17.50;91.20;;;;;;5108647;28;20477;-64
2023/03/21 01:06:58;;;;;;;7.00;4.93;;;17.60;91.20;;;;;;5113601;28;20059;-63
2023/03/21 01:09:24;;;;;;;6.70;4.53;;;17.60;91.20;;;;;;5113269;28;20521;-64
2023/03/21 01:11:50;;;;;;;6.38;4.38;;;17.30;91.10;;;;;;5110862;28;20043;-64
2023/03/21 01:14:17;;;;;;;5.97;4.30;;;17.30;90.50;;;;;;5112052;28;20048;-65
2023/03/21 01:16:43;;;;;;;6.18;4.30;;;17.60;91.20;;;;;;5094950;28;20070;-65
2023/03/21 01:19:11;;;;;;;6.32;4.30;;;17.30;91.20;;;;;;5112317;28;20048;-64
2023/03/21 01:21:37;;;;;;;6.65;4.47;;;;;;;;;;5102626;28;20051;-66
2023/03/21 01:24:04;;;;;;;6.22;4.60;;;17.50;91.20;;;;;;5105410;28;20055;-63
2023/03/21 01:26:30;;;;;;;6.32;4.53;;;;;;;;;;5111477;28;20043;-64
2023/03/21 01:28:55;;;;;;;7.00;4.28;;;17.50;91.20;;;;;;5113498;28;20116;-64
2023/03/21 01:31:21;;;;;;;5.68;4.20;;;17.50;90.70;;;;;;5111835;28;20106;-64
2023/03/21 01:33:47;;;;;;;6.18;4.25;;;17.70;91.30;;;;;;5109692;28;20055;-63
2023/03/21 01:36:15;;;;;;;6.60;4.53;;;17.10;91.10;;;;;;5111964;28;20047;-65
2023/03/21 01:38:42;;;;;;;6.47;4.18;;;17.50;90.10;;;;;;5102071;28;20048;-61
2023/03/21 01:41:19;;;;;;;7.32;4.15;;;17.50;91.20;;;;;;5096161;28;20043;-66
2023/03/21 01:43:44;;;;;;;5.93;4.10;;;17.40;91.20;;;;;;5077934;28;20161;-66
2023/03/21 01:46:38;;;;;;;6.00;4.15;;;17.40;91.10;;;;;;5090992;28;20135;-66
2023/03/21 01:49:04;;;;;;;;;;;;;;;;;;5060808;28;20401;-63
2023/03/21 01:51:32;;;;;;;6.32;4.03;;;17.50;89.60;;;;;;5110085;28;20341;-68
2023/03/21 01:53:59;;;;;;;6.45;3.97;;;17.40;91.20;;;;;;5053367;28;20123;-64
2023/03/21 01:56:30;;;;;;;6.45;4.28;;;17.40;91.20;;;;;;5093682;28;20043;-64
2023/03/21 01:59:02;;;;;;;7.72;4.65;;;17.40;89.60;;;;;;5082764;28;20044;-65
2023/03/21 02:01:30;;;;;;;8.02;4.50;;;17.50;91.20;;;;;;5098072;28;20405;-64
2023/03/21 02:03:57;;;;;;;6.22;3.85;;;;;;;;;;5117430;28;20575;-63
2023/03/21 02:06:35;;;;;;;6.30;3.85;;;17.40;91.20;;;;;;5098239;28;20043;-63
2023/03/21 02:09:03;;;;;;;6.68;4.30;;;17.40;91.20;;;;;;5081163;28;20055;-65
2023/03/21 02:11:31;;;;;;;7.10;4.03;;;;;;;;;;5097245;28;20058;-65
2023/03/21 02:13:57;;;;;;;8.48;4.60;;;17.50;89.20;;;;;;5110209;28;20066;-66
2023/03/21 02:17:07;;;;;;;7.40;4.38;;;17.40;90.00;;;;;;5116189;28;20070;-64
2023/03/21 02:19:55;;;;;;;7.40;4.38;;;17.20;91.20;;;;;;5083560;28;20056;-63
2023/03/21 02:22:49;;;;;;;7.95;4.97;;;17.60;88.80;;;;;;5115599;28;20100;-63
2023/03/21 02:25:33;;;;;;;9.10;4.63;;;17.60;91.30;;;;;;5115241;28;20044;-62
2023/03/21 02:28:07;;;;;;;8.60;4.75;;;17.50;91.30;;;;;;5115115;28;20054;-63
2023/03/21 02:30:46;;;;;;;8.38;5.03;;;17.40;91.20;;;;;;5091635;28;20052;-66
2023/03/21 02:34:00;;;;;;;8.65;5.22;;;17.40;88.40;;;;;;5097956;28;20172;-64
2023/03/21 02:36:47;;;;;;;8.82;5.55;;;17.30;91.30;;;;;;5035118;28;20045;-65
2023/03/21 02:39:22;;;;;;;9.70;5.68;;;17.60;91.30;;;;;;5034660;28;20049;-66
2023/03/21 02:41:51;;;;;;;9.35;5.35;;;17.20;88.10;;;;;;5018291;28;20088;-63
2023/03/21 02:44:28;;;;;;;9.27;5.25;;;17.10;90.00;;;;;;5031542;28;20049;-64
2023/03/21 02:47:03;;;;;;;9.57;5.88;;;17.30;91.30;;;;;;5020421;28;20056;-62
2023/03/21 02:49:35;;;;;;;10.70;6.03;;;17.40;91.30;;;;;;5032146;28;20442;-67
2023/03/21 02:52:01;;;;;;;9.60;5.35;;;17.40;91.30;;;;;;5035945;28;20124;-64
2023/03/21 02:54:26;;;;;;;10.00;6.22;;;17.30;91.30;;;;;;5035407;28;20164;-62
2023/03/21 02:56:54;;;;;;;9.90;6.20;;;17.50;89.70;;;;;;5035148;28;20053;-65
2023/03/21 02:59:21;;;;;;;11.13;5.95;;;17.40;91.30;;;;;;5036755;28;20136;-62
2023/03/21 03:01:46;;;;;;;9.18;6.03;;;17.30;91.30;;;;;;5034346;28;20071;-64
2023/03/21 03:04:22;;;;;;;9.20;6.20;;;17.60;88.40;;;;;;5052386;28;20049;-65
2023/03/21 03:07:25;;;;;;;10.93;5.93;;;17.10;90.50;;;;;;5045362;28;20061;-64
2023/03/21 03:10:18;;;;;;;10.73;6.82;;;17.40;88.90;;;;;;5032991;28;20564;-62
2023/03/21 03:12:44;;;;;;;;;;;;;;;;;;5077285;28;20047;-63
2023/03/21 03:15:40;;;;;;;10.70;6.38;;;17.30;88.90;;;;;;5095711;28;19920;-65
2023/03/21 03:18:09;;;;;;;9.95;5.78;;;17.40;91.30;;;;;;5095599;28;20055;-64
2023/03/21 03:20:56;;;;;;;9.48;5.68;;;17.60;91.40;;;;;;5098176;28;20040;-67
2023/03/21 03:23:27;;;;;;;9.63;6.35;;;17.10;89.80;;;;;;5070665;28;20048;-63
2023/03/21 03:26:01;;;;;;;9.82;6.07;;;17.50;91.40;;;;;;5114071;28;20094;-62
2023/03/21 03:28:30;;;;;;;9.23;6.03;;;17.40;91.40;;;;;;5079574;28;20048;-61
2023/03/21 03:30:56;;;;;;;9.77;6.15;;;17.30;91.30;;;;;;5097792;28;20048;-63
2023/03/21 03:33:22;;;;;;;9.15;6.20;;;17.30;91.30;;;;;;5079067;28;20484;-61
2023/03/21 03:35:48;;;;;;;9.70;6.20;;;17.30;90.70;;;;;;5090936;28;20409;-65
2023/03/21 03:38:14;;;;;;;9.60;6.25;;;17.50;91.40;;;;;;5065288;28;20040;-65
2023/03/21 03:40:42;;;;;;;8.80;5.60;;;17.50;91.40;;;;;;5100017;28;20078;-61
2023/03/21 03:43:14;;;;;;;10.35;6.15;;;17.40;91.40;;;;;;5093839;28;20036;-64
2023/03/21 03:45:46;;;;;;;9.05;5.82;;;17.70;91.40;;;;;;5098149;28;20378;-62
2023/03/21 03:48:37;;;;;;;10.63;6.00;;;17.40;91.40;;;;;;5095550;28;20047;-62
2023/03/21 03:51:17;;;;;;;9.35;5.93;;;17.20;91.30;;;;;;5097314;28;20130;-63
2023/03/21 03:53:56;;;;;;;8.88;5.85;;;17.40;91.40;;;;;;5089174;28;20093;-65
2023/03/21 03:56:24;;;;;;;8.80;6.03;;;17.40;91.40;;;;;;5102552;28;20071;-62
2023/03/21 03:58:50;;;;;;;8.68;6.18;;;17.30;91.30;;;;;;5092811;28;20536;-61
2023/03/21 04:01:16;;;;;;;10.65;6.10;;;17.40;91.40;;;;;;5114813;28;20130;-64
2023/03/21 04:03:43;;;;;;;10.50;5.78;;;17.50;91.40;;;;;;5112072;28;20122;-63
2023/03/21 04:06:09;;;;;;;8.48;5.70;;;17.10;90.80;;;;;;5115055;28;20048;-63
2023/03/21 04:08:36;;;;;;;9.05;6.03;;;17.40;91.40;;;;;;5112571;28;20119;-63
2023/03/21 04:11:02;;;;;;;8.07;5.60;;;17.30;91.40;;;;;;5109567;28;20056;-65
2023/03/21 04:13:28;;;;;;;9.88;6.20;;;17.40;91.40;;;;;;5111287;28;20043;-62
2023/03/21 04:15:54;;;;;;;9.45;6.05;;;17.60;91.40;;;;;;5096213;28;20143;-62
2023/03/21 04:18:21;;;;;;;9.10;5.70;;;17.30;91.40;;;;;;5094787;28;20082;-62
2023/03/21 04:20:48;;;;;;;9.23;5.22;;;17.40;91.40;;;;;;5113383;28;20055;-64
2023/03/21 04:23:15;;;;;;;8.07;5.50;;;17.30;91.40;;;;;;5112996;28;20392;-61
2023/03/21 04:25:40;;;;;;;8.57;5.63;;;17.50;91.40;;;;;;5091610;28;20404;-62
2023/03/21 04:28:06;;;;;;;7.68;5.10;;;17.40;91.40;;;;;;5108044;28;20044;-62
2023/03/21 04:30:33;;;;;;;9.13;5.80;;;17.10;91.40;;;;;;5104477;28;20079;-64
2023/03/21 04:32:59;;;;;;;7.18;5.22;;;17.50;91.40;;;;;;5111738;28;20374;-62
2023/03/21 04:35:25;;;;;;;8.73;6.00;;;17.50;91.40;;;;;;5112271;28;20090;-69
2023/03/21 04:37:51;;;;;;;7.28;4.80;;;17.30;91.40;;;;;;5114186;28;20063;-62
2023/03/21 04:40:17;;;;;;;7.63;5.15;;;17.50;91.40;;;;;;5112990;28;20043;-62
2023/03/21 04:42:44;;;;;;;7.13;5.05;;;17.30;91.40;;;;;;5112101;28;20043;-61
2023/03/21 04:45:10;;;;;;;8.35;5.40;;;;;;;;;;5089289;28;20090;-63
2023/03/21 04:47:36;;;;;;;7.00;4.63;;;17.30;91.40;;;;;;5095197;28;20446;-62
2023/03/21 04:50:02;;;;;;;7.88;5.32;;;17.40;91.40;;;;;;5113876;28;20039;-62
2023/03/21 04:52:28;;;;;;;7.22;4.90;;;17.40;91.40;;;;;;5109857;28;20374;-63
2023/03/21 04:54:54;;;;;;;8.45;4.90;;;17.30;91.40;;;;;;5112527;28;20042;-62
2023/03/21 04:57:20;;;;;;;6.82;4.85;;;17.40;91.40;;;;;;5111888;28;20043;-64
2023/03/21 04:59:45;;;;;;;7.60;5.35;;;17.40;89.50;;;;;;5111789;28;20497;-62
2023/03/21 05:02:11;;;;;;;7.35;4.63;;;17.50;91.40;;;;;;5104810;28;20044;-62
2023/03/21 05:04:37;;;;;;;7.28;4.60;;;17.30;91.40;;;;;;5113887;28;20040;-63
2023/03/21 05:07:03;;;;;;;8.25;5.22;;;17.10;91.40;;;;;;5112903;28;20397;-63
2023/03/21 05:09:29;;;;;;;8.05;4.85;;;17.50;91.50;;;;;;5113999;28;20474;-63
2023/03/21 05:11:54;;;;;;;8.60;5.00;;;17.30;91.40;;;;;;5092139;28;20043;-62
2023/03/21 05:14:22;;;;;;;8.18;4.88;;;17.30;90.00;;;;;;5113001;28;20047;-61
2023/03/21 05:16:52;;;;;;;7.57;4.63;;;;;;;;;;5112189;28;20051;-62
2023/03/21 05:19:19;;;;;;;7.32;4.97;;;17.20;91.40;;;;;;5105754;28;20044;-64
2023/03/21 05:21:45;;;;;;;7.63;4.78;;;17.60;91.50;;;;;;5094082;28;20047;-68
2023/03/21 05:24:16;;;;;;;6.70;4.60;;;17.50;88.70;;;;;;5091682;28;20538;-63
2023/03/21 05:26:42;;;;;;;8.98;5.38;;;;;;;;;;5111834;28;20432;-65
2023/03/21 05:29:08;;;;;;;6.63;4.28;;;17.30;91.50;;;;;;5112413;28;20064;-61
2023/03/21 05:31:35;;;;;;;6.97;4.53;;;17.30;91.50;;;;;;5111492;28;20035;-62
2023/03/21 05:34:01;;;;;;;6.18;4.25;;;17.30;91.40;;;;;;5109787;28;20039;-65
2023/03/21 05:36:27;;;;;;;6.70;4.50;;;;;;;;;;5095030;28;20413;-65
2023/03/21 05:38:52;;;;;;;7.53;4.70;;;17.30;91.50;;;;;;5111343;28;20035;-64
2023/03/21 05:41:20;;;;;;;7.15;4.53;;;;;;;;;;5112331;28;20043;-64
2023/03/21 05:43:46;;;;;;;7.00;4.18;;;17.20;91.40;;;;;;5108475;28;20048;-61
2023/03/21 05:46:12;;;;;;;6.85;4.45;;;17.50;91.60;;;;;;5113329;28;20031;-61
2023/03/21 05:48:38;;;;;;;6.72;4.47;;;17.40;91.20;;;;;;5111974;28;20079;-61
2023/03/21 05:51:04;;;;;;;6.35;3.95;;;17.30;90.40;;;;;;5094934;28;20046;-63
2023/03/21 05:53:30;;;;;;;7.10;4.68;;;17.30;91.50;;;;;;5108794;28;20031;-61
2023/03/21 05:55:55;;;;;;;7.93;4.57;;;17.30;91.50;;;;;;5112798;28;20097;-61
2023/03/21 05:58:21;;;;;;;7.72;4.75;;;17.40;91.60;;;;;;5112171;28;20118;-62
2023/03/21 06:00:47;;;;;;;6.72;4.50;;;17.20;91.60;;;;;;5112779;28;20043;-62
2023/03/21 06:03:13;;;;;;;6.85;4.43;;;;;;;;;;5090812;28;20052;-62
2023/03/21 06:05:39;;;;;;;6.25;4.20;;;17.30;91.50;;;;;;5109804;28;20075;-62
2023/03/21 06:08:05;;;;;;;7.75;4.13;;;17.20;91.50;;;;;;5111322;28;20078;-61
2023/03/21 06:10:30;;;;;;;7.03;4.05;;;17.20;91.50;;;;;;5103572;28;20039;-62
2023/03/21 06:12:56;;;;;;;6.45;4.18;;;17.20;91.50;;;;;;5102988;28;20117;-62
2023/03/21 06:15:22;;;;;;;6.55;4.10;;;17.00;91.50;;;;;;5112642;28;20047;-61
2023/03/21 06:17:48;;;;;;;6.10;4.13;;;17.30;91.60;;;;;;5111193;28;20073;-61
2023/03/21 06:20:14;;;;;;;5.95;3.97;;;;;;;;;;5111572;28;20062;-61
2023/03/21 06:22:40;;;;;;;7.07;4.13;;;16.80;91.40;;;;;;5104483;28;20086;-61
2023/03/21 06:25:06;;;;;;;6.35;4.20;;;17.20;91.50;;;;;;5111233;28;20071;-62
2023/03/21 06:27:33;;;;;;;6.22;4.00;;;17.30;90.60;;;;;;5088108;28;20501;-62
2023/03/21 06:29:59;;;;;;;6.57;3.85;;;17.60;91.60;;;;;;5109864;28;20043;-62
2023/03/21 06:32:25;;;;;;;7.38;4.00;;;17.10;89.50;;;;;;5110562;28;20177;-63
2023/03/21 06:34:51;;;;;;;6.22;4.32;;;17.20;91.50;;;;;;5092820;28;20050;-61
2023/03/21 06:37:17;;;;;;;6.13;3.97;;;17.30;91.60;;;;;;5112543;28;20048;-61
2023/03/21 06:39:42;;;;;;;6.00;3.85;;;17.20;91.60;;;;;;5110224;28;20122;-65
2023/03/21 06:42:09;;;;;;;5.65;3.58;;;;;;;;;;5109204;28;20075;-63
2023/03/21 06:44:35;;;;;;;6.13;3.78;;;;;;;;;;5112178;28;20043;-65
2023/03/21 06:47:01;;;;;;;6.97;3.80;;;17.20;91.60;;;;;;5116587;28;20040;-65
2023/03/21 06:49:27;;;;;;;5.28;3.50;;;17.30;91.60;;;;;;5096548;28;20049;-66
2023/03/21 06:51:52;;;;;;;5.70;3.50;;;17.30;91.60;;;;;;5115031;28;20044;-66
2023/03/21 06:54:18;;;;;;;5.82;3.65;;;17.50;91.60;;;;;;5113385;28;20101;-64
2023/03/21 06:56:45;;;;;;;5.90;3.75;;;17.50;91.60;;;;;;5113995;28;20035;-64
2023/03/21 06:59:11;;;;;;;5.82;3.60;;;;;;;;;;5098096;28;20047;-64
2023/03/21 07:01:37;;;;;;;6.10;3.55;;;17.40;91.60;;;;;;5107817;28;20423;-62
2023/03/21 07:04:03;;;;;;;5.30;3.40;;;17.60;91.60;;;;;;5093926;28;20043;-66
2023/03/21 07:06:29;;;;;;;7.22;4.13;;;17.40;91.60;;;;;;5097955;28;20455;-65
2023/03/21 07:08:55;;;;;;;5.65;3.90;;;17.10;91.50;;;;;;5115156;28;20040;-65
2023/03/21 07:11:21;;;;;;;5.47;3.38;;;17.30;89.60;;;;;;5115464;28;20093;-65
2023/03/21 07:13:47;;;;;;;5.57;3.33;;;17.30;91.50;;;;;;5095716;28;20134;-62
2023/03/21 07:16:16;;;;;;;6.75;3.65;;;17.60;91.60;;;;;;5115502;28;20530;-62
2023/03/21 07:18:42;;;;;;;5.78;3.38;;;17.50;91.60;;;;;;5104927;28;20056;-63
2023/03/21 07:21:08;;;;;;;5.70;3.63;;;17.50;91.60;;;;;;5116072;28;20044;-63
2023/03/21 07:23:34;;;;;;;5.80;3.75;;;17.30;91.60;;;;;;5094734;28;20035;-62
2023/03/21 07:26:00;;;;;;;4.97;3.40;;;17.50;91.60;;;;;;5114243;28;20044;-61
2023/03/21 07:28:26;;;;;;;5.82;3.97;;;17.20;91.50;;;;;;5114719;28;20139;-61
2023/03/21 07:30:54;;;;;;;5.70;3.50;;;17.40;91.00;;;;;;5094101;28;20501;-70
2023/03/21 07:33:20;;;;;;;5.43;3.42;;;17.50;91.60;;;;;;5079191;28;20056;-70
2023/03/21 07:35:46;;;;;;;5.40;3.53;;;17.40;91.60;;;;;;5104076;28;20367;-64
2023/03/21 07:38:13;;;;;;;5.78;4.20;;;17.50;91.60;;;;;;5109016;28;20046;-64
2023/03/21 07:40:39;;;;;;;5.50;3.63;;;17.60;91.70;;;;;;5114694;28;20053;-63
2023/03/21 07:43:05;;;;;;;5.95;3.80;;;17.30;91.60;;;;;;5096338;28;20464;-65
2023/03/21 07:45:30;;;;;;;5.05;3.35;;;17.50;91.70;;;;;;5096233;28;20044;-64
2023/03/21 07:47:56;;;;;;;5.97;3.60;;;17.30;91.60;;;;;;5113349;28;20476;-64
2023/03/21 07:50:22;;;;;;;5.30;3.60;;;17.40;91.70;;;;;;5114891;28;20040;-64
2023/03/21 07:52:48;;;;;;;5.43;3.65;;;;;;;;;;5100016;28;20458;-63
2023/03/21 07:55:16;;;;;;;5.60;3.80;;;17.60;91.70;;;;;;5110563;28;20422;-62
2023/03/21 07:57:42;;;;;;;5.30;3.40;;;17.30;91.70;;;;;;5112701;28;20040;-61
2023/03/21 08:00:09;;;;;;;6.13;3.83;;;;;;;;;;5115262;28;20095;-64
2023/03/21 08:02:35;;;;;;;6.13;3.75;;;17.50;91.70;;;;;;5113545;28;20456;-64
2023/03/21 08:05:02;;;;;;;5.68;3.97;;;17.30;91.60;;;;;;5112502;28;20071;-63
2023/03/21 08:07:29;;;;;;;5.90;3.70;;;;;;;;;;5115059;28;20489;-64
2023/03/21 08:09:55;;;;;;;5.80;3.40;;;17.40;91.70;;;;;;5087692;28;20393;-65
2023/03/21 08:12:21;;;;;;;5.50;3.50;;;17.60;91.70;;;;;;5113674;28;20027;-70
2023/03/21 08:14:47;;;;;;;5.72;3.33;;;;;;;;;;5114521;28;20576;-66
2023/03/21 08:17:14;;;;;;;6.68;3.92;;;;;;;;;;5096027;28;20062;-63
2023/03/21 08:19:40;;;;;;;5.53;4.05;;;17.50;91.60;;;;;;5113229;28;20081;-64
2023/03/21 08:22:05;;;;;;;5.00;3.13;;;17.50;91.70;;;;;;5113724;28;20052;-64
2023/03/21 08:24:32;;;;;;;5.80;3.72;;;17.50;91.60;;;;;;5110703;28;20047;-64
2023/03/21 08:27:00;;;;;;;4.93;3.17;;;17.10;91.50;;;;;;5090471;28;20095;-61
2023/03/21 08:29:26;;;;;;;5.25;3.40;;;17.40;91.60;;;;;;5097328;27;20088;-64
2023/03/21 08:31:52;;;;;;;5.53;3.13;;;17.30;90.50;;;;;;5111256;28;20148;-69
2023/03/21 08:34:18;;;;;;;4.97;3.22;;;17.40;91.60;;;;;;5114168;28;20066;-70
2023/03/21 08:36:44;;;;;;;5.22;3.30;;;17.40;91.60;;;;;;5105946;28;20048;-70
2023/03/21 08:39:10;;;;;;;4.70;3.20;;;;;;;;;;5104257;28;20451;-65
2023/03/21 08:41:36;;;;;;;5.25;3.28;;;17.60;91.70;;;;;;5110901;28;20045;-62
2023/03/21 08:44:03;;;;;;;5.07;2.97;;;17.50;91.60;;;;;;5082018;28;20044;-70
2023/03/21 08:46:30;;;;;;;5.07;3.08;;;17.60;91.70;;;;;;5103209;28;20048;-70
2023/03/21 08:48:55;;;;;;;5.20;3.05;;;17.40;91.60;;;;;;5096278;28;20128;-68
2023/03/21 08:51:21;;;;;;;4.60;2.70;;;17.20;91.60;;;;;;5113336;28;20174;-68
2023/03/21 08:53:49;;;;;;;4.88;2.80;;;17.50;91.70;;;;;;5113580;28;20043;-68
2023/03/21 08:56:16;;;;;;;4.32;2.72;;;;;;;;;;5095231;28;20047;-61
2023/03/21 08:58:41;;;;;;;5.85;2.92;;;17.30;91.60;;;;;;5113412;28;20044;-65
2023/03/21 09:01:10;;;;;;;4.80;2.70;;;17.30;91.60;;;;;;5099263;28;20042;-66
2023/03/21 09:03:37;;;;;;;4.88;2.60;;;17.40;90.30;;;;;;5111588;28;20127;-65
2023/03/21 09:06:03;;;;;;;4.50;2.60;;;17.40;91.70;;;;;;5111957;28;20546;-65
2023/03/21 09:08:29;;;;;;;4.53;2.42;;;17.40;91.70;;;;;;5095351;28;20046;-70
2023/03/21 09:10:55;;;;;;;4.40;2.33;;;17.60;91.80;;;;;;5126555;27;20485;-69
2023/03/21 09:13:21;;;;;;;3.78;2.15;;;17.40;91.80;;;;;;5113852;28;20081;-69
2023/03/21 09:15:47;;;;;;;3.42;2.03;;;17.70;91.80;;;;;;5112484;28;20059;-69
2023/03/21 09:18:14;;;;;;;3.35;2.00;;;17.30;91.00;;;;;;5103407;28;20055;-67
2023/03/21 09:20:41;;;;;;;4.53;2.25;;;17.60;91.80;;;;;;5113620;28;20040;-70
2023/03/21 09:23:09;;;;;;;4.50;2.25;;;17.60;91.80;;;;;;5113167;28;20059;-69
2023/03/21 09:25:36;;;;;;;4.32;2.30;;;17.40;91.70;;;;;;5093151;28;20044;-69
2023/03/21 09:28:05;;;;;;;4.85;2.00;;;;;;;;;;5113595;28;20075;-70
2023/03/21 09:30:34;;;;;;;4.25;2.00;;;17.60;91.80;;;;;;5113502;28;20055;-70
2023/03/21 09:33:02;;;;;;;3.88;2.03;;;17.50;91.80;;;;;;5113582;28;20405;-70
2023/03/21 09:35:28;;;;;;;3.83;1.98;;;17.60;91.80;;;;;;5106561;28;20040;-69
2023/03/21 09:37:56;;;;;;;3.50;1.80;;;17.60;90.20;;;;;;5112506;28;20413;-70
2023/03/21 09:40:39;;;;;;;3.55;1.95;;;17.60;90.30;;;;;;5112442;28;20031;-69
2023/03/21 09:43:22;;;;;;;2.95;1.70;;;17.20;91.70;;;;;;5078728;28;20054;-70
2023/03/21 09:45:59;;;;;;;3.90;2.13;;;;;;;;;;5096386;28;20382;-64
2023/03/21 09:48:42;;;;;;;4.45;2.03;;;17.40;91.80;;;;;;5112055;28;20047;-63
2023/03/21 09:51:10;;;;;;;3.53;2.08;;;17.40;91.50;;;;;;5118702;27;20051;-69
2023/03/21 09:53:37;;;;;;;3.70;2.00;;;17.50;91.80;;;;;;5091364;28;20059;-70
2023/03/21 09:56:04;;;;;;;4.10;2.15;;;;;;;;;;5074709;28;20048;-64
2023/03/21 09:58:33;;;;;;;4.18;2.00;;;17.60;91.80;;;;;;5112428;28;20180;-69
2023/03/21 10:01:07;;;;;;;4.30;2.03;;;17.60;91.80;;;;;;5087250;28;20039;-65
2023/03/21 10:03:36;;;;;;;4.35;2.20;;;17.50;91.80;;;;;;5110037;28;20689;-62
2023/03/21 10:06:10;;;;;;;4.03;1.85;;;17.40;90.40;;;;;;5095336;28;20048;-63
2023/03/21 10:08:40;;;;;;;4.65;2.30;;;17.50;91.70;;;;;;5063089;28;20043;-69
2023/03/21 10:11:10;;;;;;;5.38;2.45;;;;;;;;;;5092717;28;20044;-61
2023/03/21 10:13:40;;;;;;;4.38;2.40;;;17.10;91.70;;;;;;5101736;28;20479;-61
2023/03/21 10:16:24;;;;;;;5.05;2.42;;;17.70;89.80;;;;;;5061412;28;20149;-65
2023/03/21 10:18:50;;;;;;;3.83;2.40;;;17.40;91.80;;;;;;5081845;28;20054;-63
2023/03/21 10:21:21;;;;;;;3.92;2.40;;;17.40;91.80;;;;;;5081890;28;20043;-63
2023/03/21 10:23:50;;;;;;;4.57;2.45;;;17.20;91.70;;;;;;5116840;28;20124;-63
2023/03/21 10:26:16;;;;;;;4.47;2.60;;;17.50;91.80;;;;;;5082763;28;20485;-62
2023/03/21 10:28:43;;;;;;;4.93;2.63;;;17.50;91.80;;;;;;5088831;28;20047;-64
2023/03/21 10:31:09;;;;;;;5.82;3.10;;;17.50;91.90;;;;;;5117030;28;20047;-64
2023/03/21 10:33:37;;;;;;;4.85;2.70;;;17.60;91.80;;;;;;5116568;28;20131;-67
2023/03/21 10:36:09;;;;;;;5.72;2.78;;;17.50;91.80;;;;;;5116582;28;20153;-62
2023/03/21 10:38:35;;;;;;;5.00;3.03;;;;;;;;;;5115460;28;20039;-64
2023/03/21 10:41:01;;;;;;;5.00;3.03;;;17.50;91.80;;;;;;5116753;28;20419;-64
2023/03/21 10:43:26;;;;;;;5.95;2.83;;;17.40;91.80;;;;;;5107600;28;20093;-68
2023/03/21 10:45:53;;;;;;;5.93;3.20;;;17.20;90.80;;;;;;5114491;28;20500;-65
2023/03/21 10:48:19;;;;;;;7.00;3.72;;;17.40;91.80;;;;;;5111995;28;20046;-61
2023/03/21 10:50:47;;;;;;;6.82;3.35;;;17.60;91.90;;;;;;5116217;28;20044;-62
2023/03/21 10:53:31;;;;;;;6.28;3.83;;;17.50;91.90;;;;;;5097773;28;20043;-62
2023/03/21 10:55:59;;;;;;;8.07;3.30;;;17.40;91.90;;;;;;5114359;28;20043;-62
2023/03/21 10:58:26;;;;;;;6.35;3.60;;;17.50;91.90;;;;;;5115819;28;20046;-61
2023/03/21 11:00:59;;;;;;;7.70;3.72;;;17.40;91.90;;;;;;5083711;28;20052;-64
2023/03/21 11:03:31;;;;;;;6.68;3.78;;;17.20;91.90;;;;;;5114437;28;20123;-65
2023/03/21 11:06:15;;;;;;;8.95;4.43;;;17.30;90.00;;;;;;5116210;28;20047;-62
2023/03/21 11:08:47;;;;;;;8.48;4.60;;;17.40;92.00;;;;;;5097008;28;20058;-64
2023/03/21 11:11:19;;;;;;;9.45;5.78;;;17.50;90.60;;;;;;5093109;28;20455;-65
2023/03/21 11:13:45;;;;;;;11.02;6.75;;;17.20;92.00;;;;;;5095651;28;20047;-64
2023/03/21 11:16:18;;;;;;;10.73;6.78;;;17.00;90.70;;;;;;5094802;28;20047;-64
2023/03/21 11:18:46;;;;;;;9.70;5.90;;;17.20;92.30;;;;;;5116044;28;20112;-64
2023/03/21 11:21:12;;;;;;;9.23;5.28;;;17.20;90.90;;;;;;5097184;28;20540;-63
2023/03/21 11:23:46;;;;;;;8.25;4.90;;;17.30;92.40;;;;;;5097407;28;20513;-62
2023/03/21 11:26:35;;;;;;;11.25;5.53;;;17.30;91.20;;;;;;5098538;28;20378;-63
2023/03/21 11:29:32;;;;;;;10.45;5.57;;;17.10;91.10;;;;;;5097225;28;20073;-63
2023/03/21 11:32:09;;;;;;;9.73;5.63;;;17.00;91.80;;;;;;5071385;28;20059;-64
2023/03/21 11:34:52;;;;;;;9.98;5.03;;;17.30;92.20;;;;;;5080360;28;20101;-63
2023/03/21 11:37:18;;;;;;;;;;;;;;;;;;5077637;28;20056;-63
2023/03/21 11:39:44;;;;;;;8.48;4.88;;;17.50;91.20;;;;;;5094394;28;19928;-64
2023/03/21 11:42:30;;;;;;;8.63;4.88;;;;;;;;;;5083493;28;20051;-64
2023/03/21 11:45:10;;;;;;;11.68;5.18;;;17.50;90.10;;;;;;5111085;28;20381;-64
2023/03/21 11:47:36;;;;;;;8.45;4.60;;;17.40;92.00;;;;;;5096064;28;20036;-69
2023/03/21 11:50:05;;;;;;;7.35;4.55;;;17.60;92.10;;;;;;5108021;28;20135;-65
2023/03/21 11:52:37;;;;;;;8.18;4.47;;;17.50;92.00;;;;;;5108791;28;20054;-69
2023/03/21 11:55:15;;;;;;;9.30;4.65;;;17.50;89.70;;;;;;5094870;28;20055;-67
2023/03/21 11:58:19;;;;;;;6.93;4.50;;;17.60;90.70;;;;;;5113906;28;20115;-70
2023/03/21 12:01:27;;;;;;;10.15;4.75;;;17.70;90.80;;;;;;5113909;28;20043;-67
2023/03/21 12:04:12;;;;;;;6.70;4.15;;;17.60;92.00;;;;;;5092626;28;20052;-64
2023/03/21 12:07:05;;;;;;;9.30;4.45;;;17.70;90.70;;;;;;5112564;28;20097;-65
2023/03/21 12:09:40;;;;;;;9.45;4.32;;;17.60;91.90;;;;;;5086965;28;20481;-68
2023/03/21 12:12:24;;;;;;;8.63;4.20;;;17.40;90.00;;;;;;5095196;28;20389;-64
2023/03/21 12:15:00;;;;;;;8.93;4.75;;;17.40;91.80;;;;;;5112900;28;20058;-65
2023/03/21 12:17:32;;;;;;;9.57;5.05;;;17.80;90.60;;;;;;5097103;28;20127;-64
2023/03/21 12:20:08;;;;;;;8.63;4.43;;;17.70;91.90;;;;;;5112604;28;20052;-65
2023/03/21 12:23:00;;;;;;;9.00;4.47;;;17.30;89.40;;;;;;5112575;28;20435;-64
2023/03/21 12:26:04;;;;;;;7.88;4.43;;;17.60;91.90;;;;;;5089197;28;20406;-65
2023/03/21 12:29:18;;;;;;;8.55;4.25;;;17.80;91.90;;;;;;5109136;28;20051;-66
2023/03/21 12:31:48;;;;;;;9.60;4.45;;;17.40;91.80;;;;;;5092898;28;20044;-66
2023/03/21 12:34:43;;;;;;;10.23;4.53;;;17.70;90.00;;;;;;5093800;28;20031;-63
2023/03/21 12:37:12;;;;;;;9.80;4.60;;;17.50;91.80;;;;;;5074205;28;20072;-63
2023/03/21 12:39:40;;;;;;;9.68;4.53;;;17.80;91.80;;;;;;5094994;28;20047;-74
2023/03/21 12:42:12;;;;;;;8.13;4.30;;;17.50;91.70;;;;;;5090084;28;20123;-71
2023/03/21 12:44:40;;;;;;;8.93;4.90;;;17.80;91.80;;;;;;5112242;28;20069;-72
2023/03/21 12:47:26;;;;;;;8.35;4.18;;;17.80;91.80;;;;;;5114351;28;20043;-67
2023/03/21 12:50:05;;;;;;;9.45;4.82;;;17.90;91.70;;;;;;5090200;28;20051;-69
2023/03/21 12:52:59;;;;;;;8.55;4.47;;;17.90;90.50;;;;;;5093386;28;20091;-65
2023/03/21 12:55:32;;;;;;;9.40;4.50;;;17.80;90.30;;;;;;5113428;28;20114;-66
2023/03/21 12:58:03;;;;;;;13.65;4.80;;;17.90;91.80;;;;;;5090859;28;20044;-68
2023/03/21 13:00:33;;;;;;;12.73;4.63;;;18.00;91.70;;;;;;5091691;28;20093;-67
2023/03/21 13:03:05;;;;;;;16.02;5.10;;;17.70;91.70;;;;;;5095609;28;20199;-66
2023/03/21 13:05:49;;;;;;;13.68;4.53;;;18.00;89.20;;;;;;5111689;28;20044;-68
2023/03/21 13:08:24;;;;;;;11.20;4.57;;;17.70;91.70;;;;;;5113572;28;20054;-62
2023/03/21 13:10:49;;;;;;;8.55;4.30;;;17.80;91.80;;;;;;5112233;28;20127;-62
2023/03/21 13:13:18;;;;;;;10.73;4.20;;;17.70;91.80;;;;;;5113479;28;20081;-62